Time;durP1;ratioP1;P1;durP2;ratioP2;P2;SDS_P1;SDS_P2;PMS_P1;PMS_P2;Temp;Humidity;BMP_temperature;BMP_pressure;BME280_temperature;BME280_humidity;BME280_pressure;Samples;Min_cycle;Max_cycle;Signal;HPM_P1;HPM_P2
2022/11/14 00:02:23;;;;;;;;;;;;;;;;;;5030741;28;604;-77
2022/11/14 00:05:08;;;;;;;;;;;;;;;;;;5031687;28;1441;-78
2022/11/14 00:07:53;;;;;;;;;;;;;;;;;;5031850;28;714;-78
2022/11/14 00:10:38;;;;;;;;;;;;;;;;;;5032461;28;665;-77
2022/11/14 00:13:23;;;;;;;;;;;;;;;;;;5031381;28;712;-77
2022/11/14 00:16:09;;;;;;;;;;;;;;;;;;5031880;28;633;-78
2022/11/14 00:18:54;;;;;;;;;;;;;;;;;;5031704;28;2023;-78
2022/11/14 00:21:38;;;;;;;;;;;;;;;;;;5030210;28;669;-78
2022/11/14 00:24:23;;;;;;;;;;;;;;;;;;5030745;28;1312;-78
2022/11/14 00:27:08;;;;;;;;;;;;;;;;;;5032286;28;605;-78
2022/11/14 00:29:53;;;;;;;;;;;;;;;;;;5032676;28;1460;-78
2022/11/14 00:32:39;;;;;;;;;;;;;;;;;;5031994;28;1338;-78
2022/11/14 00:35:24;;;;;;;;;;;;;;;;;;5032090;28;1408;-77
2022/11/14 00:38:09;;;;;;;;;;;;;;;;;;5031829;28;654;-78
2022/11/14 00:40:54;;;;;;;;;;;;;;;;;;5031761;28;1977;-78
2022/11/14 00:43:39;;;;;;;;;;;;;;;;;;5031459;28;1285;-78
2022/11/14 00:46:23;;;;;;;;;;;;;;;;;;5032087;28;675;-77
2022/11/14 00:49:10;;;;;;;;;;;;;;;;;;5034887;28;572;-78
2022/11/14 00:51:54;;;;;;;;;;;;;;;;;;5033566;28;691;-78
2022/11/14 00:54:39;;;;;;;;;;;;;;;;;;5030965;28;1332;-78
2022/11/14 00:57:24;;;;;;;;;;;;;;;;;;5030820;28;693;-78
2022/11/14 01:00:09;;;;;;;;;;;;;;;;;;5030256;28;1969;-78
2022/11/14 01:02:57;;;;;;;;;;;;;;;;;;5029465;28;652;-78
2022/11/14 01:05:43;;;;;;;;;;;;;;;;;;5030360;28;1408;-78
2022/11/14 01:08:28;;;;;;;;;;;;;;;;;;5030622;28;641;-78
2022/11/14 01:11:15;;;;;;;;;;;;;;;;;;5030735;28;643;-78
2022/11/14 01:14:00;;;;;;;;;;;;;;;;;;5030967;28;1321;-78
2022/11/14 01:16:44;;;;;;;;;;;;;;;;;;5031021;28;688;-78
2022/11/14 01:19:29;;;;;;;;;;;;;;;;;;5031376;28;1964;-77
2022/11/14 01:22:15;;;;;;;;;;;;;;;;;;5030397;28;624;-77
2022/11/14 01:25:00;;;;;;;;;;;;;;;;;;5030520;28;1346;-78
2022/11/14 01:27:45;;;;;;;;;;;;;;;;;;5031154;28;645;-78
2022/11/14 01:30:30;;;;;;;;;;;;;;;;;;5030852;28;701;-78
2022/11/14 01:33:14;;;;;;;;;;;;;;;;;;5029911;28;625;-78
2022/11/14 01:35:59;;;;;;;;;;;;;;;;;;5035416;28;1405;-78
2022/11/14 01:38:45;;;;;;;;;;;;;;;;;;5034816;28;673;-78
2022/11/14 01:41:30;;;;;;;;;;;;;;;;;;5035937;28;665;-78
2022/11/14 01:44:15;;;;;;;;;;;;;;;;;;5039441;28;1325;-77
2022/11/14 01:47:00;;;;;;;;;;;;;;;;;;5047482;28;653;-77
2022/11/14 01:49:46;;;;;;;;;;;;;;;;;;5044438;28;668;-78
2022/11/14 01:52:31;;;;;;;;;;;;;;;;;;5037645;28;682;-78
2022/11/14 01:55:17;;;;;;;;;;;;;;;;;;5109674;22;1996;-78
2022/11/14 01:58:02;;;;;;;;;;;;;;;;;;5112793;28;1813;-77
2022/11/14 02:00:47;;;;;;;;;;;;;;;;;;5117565;28;1960;-77
2022/11/14 02:03:32;;;;;;;;;;;;;;;;;;5107827;28;2082;-79
2022/11/14 02:06:18;;;;;;;;;;;;;;;;;;5106375;28;1800;-78
2022/11/14 02:09:04;;;;;;;;;;;;;;;;;;5104712;28;1147;-79
2022/11/14 02:11:50;;;;;;;;;;;;;;;;;;5101981;28;601;-78
2022/11/14 02:14:35;;;;;;;;;;;;;;;;;;5107701;28;1317;-78
2022/11/14 02:17:21;;;;;;;;;;;;;;;;;;5102374;28;1998;-79
2022/11/14 02:20:09;;;;;;;;;;;;;;;;;;5106697;28;1890;-77
2022/11/14 02:22:54;;;;;;;;;;;;;;;;;;5105838;28;1633;-78
2022/11/14 02:25:39;;;;;;;;;;;;;;;;;;5090767;28;1797;-78
2022/11/14 02:28:25;;;;;;;;;;;;;;;;;;5090391;28;888;-78
2022/11/14 02:31:10;;;;;;;;;;;;;;;;;;5097295;28;896;-77
2022/11/14 02:33:54;;;;;;;;;;;;;;;;;;5094876;28;1959;-78
2022/11/14 02:36:41;;;;;;;;;;;;;;;;;;5096218;28;1841;-78
2022/11/14 02:39:26;;;;;;;;;;;;;;;;;;5094697;28;1915;-79
2022/11/14 02:42:10;;;;;;;;;;;;;;;;;;5093867;28;1570;-78
2022/11/14 02:44:55;;;;;;;;;;;;;;;;;;5093271;28;1821;-77
2022/11/14 02:47:40;;;;;;;;;;;;;;;;;;5089575;28;1156;-78
2022/11/14 02:50:25;;;;;;;;;;;;;;;;;;5097409;28;2030;-79
2022/11/14 02:53:11;;;;;;;;;;;;;;;;;;5093499;28;1115;-77
2022/11/14 02:55:56;;;;;;;;;;;;;;;;;;5096021;28;660;-78
2022/11/14 02:58:40;;;;;;;;;;;;;;;;;;5086023;28;2328;-77
2022/11/14 03:01:25;;;;;;;;;;;;;;;;;;5087973;28;1910;-77
2022/11/14 03:04:10;;;;;;;;;;;;;;;;;;5091032;28;1689;-79
2022/11/14 03:06:55;;;;;;;;;;;;;;;;;;5100243;28;1194;-79
2022/11/14 03:09:41;;;;;;;;;;;;;;;;;;5113770;28;2063;-78
2022/11/14 03:12:26;;;;;;;;;;;;;;;;;;5112226;28;1797;-77
2022/11/14 03:15:11;;;;;;;;;;;;;;;;;;5103422;28;1886;-77
2022/11/14 03:17:55;;;;;;;;;;;;;;;;;;5095687;28;1042;-77
2022/11/14 03:20:40;;;;;;;;;;;;;;;;;;5099351;28;1887;-78
2022/11/14 03:23:25;;;;;;;;;;;;;;;;;;5096684;28;1955;-78
2022/11/14 03:26:12;;;;;;;;;;;;;;;;;;5098634;28;1065;-78
2022/11/14 03:28:57;;;;;;;;;;;;;;;;;;5101419;28;1672;-77
2022/11/14 03:31:41;;;;;;;;;;;;;;;;;;5102809;28;1060;-78
2022/11/14 03:34:26;;;;;;;;;;;;;;;;;;5079762;28;1431;-78
2022/11/14 03:37:11;;;;;;;;;;;;;;;;;;5094079;28;1984;-78
2022/11/14 03:39:56;;;;;;;;;;;;;;;;;;5087404;28;1907;-78
2022/11/14 03:42:42;;;;;;;;;;;;;;;;;;5089427;28;1725;-78
2022/11/14 03:45:26;;;;;;;;;;;;;;;;;;5088161;28;1762;-78
2022/11/14 03:48:12;;;;;;;;;;;;;;;;;;5096761;28;1983;-78
2022/11/14 03:50:57;;;;;;;;;;;;;;;;;;5101158;28;1065;-78
2022/11/14 03:53:42;;;;;;;;;;;;;;;;;;5088940;28;2015;-79
2022/11/14 03:56:27;;;;;;;;;;;;;;;;;;5083903;28;1769;-78
2022/11/14 03:59:13;;;;;;;;;;;;;;;;;;5091460;28;1764;-78
2022/11/14 04:01:58;;;;;;;;;;;;;;;;;;5091014;28;1764;-76
2022/11/14 04:04:43;;;;;;;;;;;;;;;;;;5092440;28;1861;-77
2022/11/14 04:07:28;;;;;;;;;;;;;;;;;;5082973;28;1973;-78
2022/11/14 04:10:12;;;;;;;;;;;;;;;;;;5093555;28;1686;-78
2022/11/14 04:12:57;;;;;;;;;;;;;;;;;;5094510;28;1936;-77
2022/11/14 04:15:43;;;;;;;;;;;;;;;;;;5101440;28;2120;-79
2022/11/14 04:18:28;;;;;;;;;;;;;;;;;;5099250;28;1809;-79
2022/11/14 04:21:13;;;;;;;;;;;;;;;;;;5102572;28;1914;-78
2022/11/14 04:23:58;;;;;;;;;;;;;;;;;;5103081;28;1496;-79
2022/11/14 04:26:42;;;;;;;;;;;;;;;;;;5104002;28;661;-77
2022/11/14 04:29:27;;;;;;;;;;;;;;;;;;5096391;28;907;-79
2022/11/14 04:32:13;;;;;;;;;;;;;;;;;;5097880;28;1856;-79
2022/11/14 04:34:58;;;;;;;;;;;;;;;;;;5099742;28;1409;-78
2022/11/14 04:37:43;;;;;;;;;;;;;;;;;;5101478;28;2003;-79
2022/11/14 04:40:28;;;;;;;;;;;;;;;;;;5102593;28;1902;-79
2022/11/14 04:43:12;;;;;;;;;;;;;;;;;;5098832;28;1943;-79
2022/11/14 04:45:57;;;;;;;;;;;;;;;;;;5101504;28;1804;-78
2022/11/14 04:48:44;;;;;;;;;;;;;;;;;;5105916;28;1666;-79
2022/11/14 04:51:29;;;;;;;;;;;;;;;;;;5096113;28;1900;-80
2022/11/14 04:54:14;;;;;;;;;;;;;;;;;;5102284;28;1816;-79
2022/11/14 04:56:59;;;;;;;;;;;;;;;;;;5098525;28;1721;-79
2022/11/14 04:59:43;;;;;;;;;;;;;;;;;;5100790;28;1800;-80
2022/11/14 05:02:30;;;;;;;;;;;;;;;;;;5100913;28;1954;-79
2022/11/14 05:05:16;;;;;;;;;;;;;;;;;;5098312;28;1921;-79
2022/11/14 05:08:01;;;;;;;;;;;;;;;;;;5100895;28;1045;-80
2022/11/14 05:10:46;;;;;;;;;;;;;;;;;;5101045;28;1551;-80
2022/11/14 05:13:30;;;;;;;;;;;;;;;;;;5086353;28;1392;-80
2022/11/14 05:16:15;;;;;;;;;;;;;;;;;;5097910;28;1378;-80
2022/11/14 05:19:00;;;;;;;;;;;;;;;;;;5106496;28;622;-80
2022/11/14 05:21:47;;;;;;;;;;;;;;;;;;5103092;28;1999;-80
2022/11/14 05:24:31;;;;;;;;;;;;;;;;;;5103440;28;1329;-79
2022/11/14 05:27:16;;;;;;;;;;;;;;;;;;5104234;28;1374;-80
2022/11/14 05:30:01;;;;;;;;;;;;;;;;;;5106647;28;684;-80
2022/11/14 05:32:46;;;;;;;;;;;;;;;;;;5106429;28;690;-80
2022/11/14 05:35:31;;;;;;;;;;;;;;;;;;5088800;28;1403;-80
2022/11/14 05:38:17;;;;;;;;;;;;;;;;;;5100621;28;1281;-80
2022/11/14 05:41:04;;;;;;;;;;;;;;;;;;5103041;28;1953;-80
2022/11/14 05:43:50;;;;;;;;;;;;;;;;;;5110949;28;1995;-79
2022/11/14 05:46:34;;;;;;;;;;;;;;;;;;5108114;28;1809;-79
2022/11/14 05:49:19;;;;;;;;;;;;;;;;;;5100155;28;1492;-79
2022/11/14 05:52:04;;;;;;;;;;;;;;;;;;5089741;28;1359;-79
2022/11/14 05:54:51;;;;;;;;;;;;;;;;;;5093235;28;1433;-80
2022/11/14 05:57:35;;;;;;;;;;;;;;;;;;5089583;28;991;-81
2022/11/14 06:00:20;;;;;;;;;;;;;;;;;;5094206;28;1965;-79
2022/11/14 06:03:05;;;;;;;;;;;;;;;;;;5092354;28;643;-80
2022/11/14 06:05:50;;;;;;;;;;;;;;;;;;5094437;28;1155;-80
2022/11/14 06:08:36;;;;;;;;;;;;;;;;;;5108554;28;1027;-80
2022/11/14 06:11:22;;;;;;;;;;;;;;;;;;5112654;28;1246;-78
2022/11/14 06:14:07;;;;;;;;;;;;;;;;;;5094633;28;1375;-81
2022/11/14 06:16:51;;;;;;;;;;;;;;;;;;5091137;28;1054;-80
2022/11/14 06:19:36;;;;;;;;;;;;;;;;;;5094210;28;1111;-81
2022/11/14 06:22:21;;;;;;;;;;;;;;;;;;5078078;28;1964;-80
2022/11/14 06:25:07;;;;;;;;;;;;;;;;;;5090227;28;1521;-79
2022/11/14 06:27:53;;;;;;;;;;;;;;;;;;5096086;28;1266;-81
2022/11/14 06:30:40;;;;;;;;;;;;;;;;;;5093363;28;1412;-81
2022/11/14 06:33:24;;;;;;;;;;;;;;;;;;5095719;28;1452;-82
2022/11/14 06:36:10;;;;;;;;;;;;;;;;;;5097929;28;1176;-81
2022/11/14 06:38:54;;;;;;;;;;;;;;;;;;5095144;28;1418;-80
2022/11/14 06:41:39;;;;;;;;;;;;;;;;;;5094825;28;1975;-80
2022/11/14 06:44:25;;;;;;;;;;;;;;;;;;5095775;28;1490;-81
2022/11/14 06:47:10;;;;;;;;;;;;;;;;;;5098119;28;1371;-83
2022/11/14 06:49:55;;;;;;;;;;;;;;;;;;5099241;28;1271;-82
2022/11/14 06:52:40;;;;;;;;;;;;;;;;;;5098733;28;680;-82
2022/11/14 06:55:25;;;;;;;;;;;;;;;;;;5096835;28;1353;-82
2022/11/14 06:58:09;;;;;;;;;;;;;;;;;;5089096;28;1726;-80
2022/11/14 07:00:56;;;;;;;;;;;;;;;;;;5090376;28;1912;-83
2022/11/14 07:03:40;;;;;;;;;;;;;;;;;;5097801;28;1402;-81
2022/11/14 07:06:26;;;;;;;;;;;;;;;;;;5093178;28;1116;-80
2022/11/14 07:09:11;;;;;;;;;;;;;;;;;;5091676;28;1155;-80
2022/11/14 07:11:56;;;;;;;;;;;;;;;;;;5091908;28;1151;-82
2022/11/14 07:14:40;;;;;;;;;;;;;;;;;;5100563;28;1404;-80
2022/11/14 07:17:26;;;;;;;;;;;;;;;;;;5111626;28;628;-81
2022/11/14 07:20:11;;;;;;;;;;;;;;;;;;5112953;28;682;-82
2022/11/14 07:22:56;;;;;;;;;;;;;;;;;;5094409;28;597;-82
2022/11/14 07:25:41;;;;;;;;;;;;;;;;;;5092492;28;1471;-82
2022/11/14 07:28:26;;;;;;;;;;;;;;;;;;5091618;28;1221;-83
2022/11/14 07:31:12;;;;;;;;;;;;;;;;;;5091771;28;1214;-79
2022/11/14 07:33:58;;;;;;;;;;;;;;;;;;5090935;28;1904;-82
2022/11/14 07:36:43;;;;;;;;;;;;;;;;;;5091848;28;1110;-81
2022/11/14 07:39:28;;;;;;;;;;;;;;;;;;5094474;28;1036;-79
2022/11/14 07:42:13;;;;;;;;;;;;;;;;;;5088753;28;1906;-81
2022/11/14 07:44:57;;;;;;;;;;;;;;;;;;5089367;28;1497;-81
2022/11/14 07:47:42;;;;;;;;;;;;;;;;;;5088516;28;1111;-81
2022/11/14 07:50:29;;;;;;;;;;;;;;;;;;5089976;28;1028;-80
2022/11/14 07:53:14;;;;;;;;;;;;;;;;;;5086864;28;1089;-82
2022/11/14 07:56:01;;;;;;;;;;;;;;;;;;5091074;28;1729;-81
2022/11/14 07:58:47;;;;;;;;;;;;;;;;;;5110282;28;1040;-82
2022/11/14 08:01:31;;;;;;;;;;;;;;;;;;5112218;28;1887;-82
2022/11/14 08:04:16;;;;;;;;;;;;;;;;;;5108434;28;1507;-82
2022/11/14 08:07:03;;;;;;;;;;;;;;;;;;5111898;28;1044;-81
2022/11/14 08:09:47;;;;;;;;;;;;;;;;;;5108739;28;1079;-80
2022/11/14 08:12:32;;;;;;;;;;;;;;;;;;5103427;28;1059;-82
2022/11/14 08:15:17;;;;;;;;;;;;;;;;;;5093803;28;1487;-82
2022/11/14 08:18:02;;;;;;;;;;;;;;;;;;5093592;28;1127;-83
2022/11/14 08:20:47;;;;;;;;;;;;;;;;;;5092209;28;1882;-82
2022/11/14 08:23:33;;;;;;;;;;;;;;;;;;5095677;28;1300;-82
2022/11/14 08:26:18;;;;;;;;;;;;;;;;;;5097557;28;1177;-83
2022/11/14 08:29:02;;;;;;;;;;;;;;;;;;5097324;28;1044;-82
2022/11/14 08:31:47;;;;;;;;;;;;;;;;;;5103038;28;1084;-82
2022/11/14 08:34:32;;;;;;;;;;;;;;;;;;5104548;22;1803;-78
2022/11/14 08:37:17;;;;;;;;;;;;;;;;;;5034948;28;943;-79
2022/11/14 08:40:05;;;;;;;;;;;;;;;;;;5033604;28;675;-78
2022/11/14 08:42:50;;;;;;;;;;;;;;;;;;5029054;28;1918;-78
2022/11/14 08:45:35;;;;;;;;;;;;;;;;;;5031120;28;1318;-77
2022/11/14 08:48:20;;;;;;;;;;;;;;;;;;5030746;28;1231;-77
2022/11/14 08:51:05;;;;;;;;;;;;;;;;;;5031106;28;1076;-78
2022/11/14 08:53:51;;;;;;;;;;;;;;;;;;5027356;28;1475;-77
2022/11/14 08:56:37;;;;;;;;;;;;;;;;;;5029899;28;1109;-78
2022/11/14 08:59:22;;;;;;;;;;;;;;;;;;5035095;28;614;-78
2022/11/14 09:02:07;;;;;;;;;;;;;;;;;;5027718;28;1982;-79
2022/11/14 09:04:51;;;;;;;;;;;;;;;;;;5029126;28;1459;-77
2022/11/14 09:07:36;;;;;;;;;;;;;;;;;;5032205;28;1036;-78
2022/11/14 09:10:21;;;;;;;;;;;;;;;;;;5029735;28;649;-78
2022/11/14 09:13:07;;;;;;;;;;;;;;;;;;5030347;28;1041;-78
2022/11/14 09:15:52;;;;;;;;;;;;;;;;;;5031956;28;1428;-78
2022/11/14 09:18:37;;;;;;;;;;;;;;;;;;5030819;28;1175;-78
2022/11/14 09:21:21;;;;;;;;;;;;;;;;;;5029118;28;1894;-78
2022/11/14 09:24:06;;;;;;;;;;;;;;;;;;5030070;28;1395;-78
2022/11/14 09:26:51;;;;;;;;;;;;;;;;;;5035883;28;673;-78
2022/11/14 09:29:37;;;;;;;;;;;;;;;;;;5036472;28;645;-79
2022/11/14 09:32:22;;;;;;;;;;;;;;;;;;5031201;28;683;-79
2022/11/14 09:35:07;;;;;;;;;;;;;;;;;;5030892;28;1387;-79
2022/11/14 09:37:58;;;;;;;;;;;;;;;;;;5034396;28;648;-79
2022/11/14 09:40:47;;;;;;;;;;;;;;;;;;5034333;28;866;-79
2022/11/14 09:43:39;;;;;;;;;;;;;;;;;;5029075;28;1963;-79
2022/11/14 09:46:26;;;;;;;;;;;;;;;;;;5033221;28;714;-79
2022/11/14 09:49:15;;;;;;;;;;;;;;;;;;5031340;28;715;-78
2022/11/14 09:52:00;;;;;;;;;;;;;;;;;;5036039;28;1108;-78
2022/11/14 09:54:46;;;;;;;;;;;;;;;;;;5030628;28;1475;-78
2022/11/14 09:57:31;;;;;;;;;;;;;;;;;;5037792;28;1117;-79
2022/11/14 10:00:18;;;;;;;;;;;;;;;;;;5032040;28;1108;-79
2022/11/14 10:03:06;;;;;;;;;;;;;;;;;;5037801;28;1906;-78
2022/11/14 10:05:55;;;;;;;;;;;;;;;;;;5035457;28;1476;-79
2022/11/14 10:08:44;;;;;;;;;;;;;;;;;;5032284;28;1202;-78
2022/11/14 10:11:29;;;;;;;;;;;;;;;;;;5032609;28;1203;-79
2022/11/14 10:14:32;;;;;;;;;;;;;;;;;;5015198;28;1330;-78
2022/11/14 10:17:22;;;;;;;;;;;;;;;;;;5012559;28;1492;-78
2022/11/14 10:20:11;;;;;;;;;;;;;;;;;;5014012;28;626;-78
2022/11/14 10:23:06;;;;;;;;;;;;;;;;;;5016318;28;1972;-78
2022/11/14 10:25:54;;;;;;;;;;;;;;;;;;5016623;28;1338;-78
2022/11/14 10:28:40;;;;;;;;;;;;;;;;;;5017160;28;713;-78
2022/11/14 10:31:28;;;;;;;;;;;;;;;;;;5017005;28;636;-78
2022/11/14 10:34:13;;;;;;;;;;;;;;;;;;5016076;28;1380;-78
2022/11/14 10:37:01;;;;;;;;;;;;;;;;;;5011800;28;612;-78
2022/11/14 10:39:47;;;;;;;;;;;;;;;;;;5017029;28;651;-78
2022/11/14 10:42:32;;;;;;;;;;;;;;;;;;5022866;28;1950;-78
2022/11/14 10:45:18;;;;;;;;;;;;;;;;;;5037477;28;1296;-79
2022/11/14 10:48:03;;;;;;;;;;;;;;;;;;5029961;28;1199;-79
2022/11/14 10:50:49;;;;;;;;;;;;;;;;;;5030184;28;1342;-77
2022/11/14 10:53:42;;;;;;;;;;;;;;;;;;5008351;28;913;-78
2022/11/14 10:56:27;;;;;;;;;;;;;;;;;;5034032;28;1182;-77
2022/11/14 10:59:12;;;;;;;;;;;;;;;;;;5053071;28;1045;-78
2022/11/14 11:01:57;;;;;;;;;;;;;;;;;;5047131;28;1910;-78
2022/11/14 11:04:42;;;;;;;;;;;;;;;;;;5050831;28;1321;-78
2022/11/14 11:13:36;;;;;;;;;;;;;;;;;;5046137;28;665;-78
2022/11/14 11:16:21;;;;;;;;;;;;;;;;;;5049564;28;687;-78
2022/11/14 11:19:18;;;;;;;;;;;;;;;;;;5049719;28;639;-78
2022/11/14 11:22:03;;;;;;;;;;;;;;;;;;5022707;28;1973;-75
2022/11/14 11:24:48;;;;;;;;;;;;;;;;;;5034338;28;1459;-78
2022/11/14 11:27:35;;;;;;;;;;;;;;;;;;5033576;28;627;-77
2022/11/14 11:30:21;;;;;;;;;;;;;;;;;;5033819;28;693;-78
2022/11/14 11:33:14;;;;;;;;;;;;;;;;;;5032682;28;692;-78
2022/11/14 11:36:00;;;;;;;;;;;;;;;;;;5035704;28;1356;-77
2022/11/14 11:38:45;;;;;;;;;;;;;;;;;;5032611;28;584;-77
2022/11/14 11:41:30;;;;;;;;;;;;;;;;;;5027362;28;1212;-76
2022/11/14 11:44:16;;;;;;;;;;;;;;;;;;5026978;28;1378;-77
2022/11/14 11:47:02;;;;;;;;;;;;;;;;;;5029033;28;599;-77
2022/11/14 11:49:47;;;;;;;;;;;;;;;;;;5028011;28;855;-76
2022/11/14 11:52:32;;;;;;;;;;;;;;;;;;5027333;28;588;-77
2022/11/14 11:55:17;;;;;;;;;;;;;;;;;;5034218;28;1340;-77
2022/11/14 11:58:04;;;;;;;;;;;;;;;;;;5052004;28;604;-77
2022/11/14 12:00:53;;;;;;;;;;;;;;;;;;5052632;28;637;-77
2022/11/14 12:03:38;;;;;;;;;;;;;;;;;;5051339;28;1918;-77
2022/11/14 12:06:24;;;;;;;;;;;;;;;;;;5052558;28;631;-77
2022/11/14 12:09:11;;;;;;;;;;;;;;;;;;5052799;28;648;-76
2022/11/14 12:11:57;;;;;;;;;;;;;;;;;;5047676;28;1481;-78
2022/11/14 12:14:48;;;;;;;;;;;;;;;;;;5031286;28;1416;-78
2022/11/14 12:17:38;;;;;;;;;;;;;;;;;;5026828;28;965;-78
2022/11/14 12:20:33;;;;;;;;;;;;;;;;;;5036507;28;658;-78
2022/11/14 12:23:34;;;;;;;;;;;;;;;;;;5030420;28;1962;-77
2022/11/14 12:26:24;;;;;;;;;;;;;;;;;;5034278;28;1359;-77
2022/11/14 12:29:20;;;;;;;;;;;;;;;;;;5034816;28;1158;-78
2022/11/14 12:32:05;;;;;;;;;;;;;;;;;;5032425;28;1273;-77
2022/11/14 12:34:52;;;;;;;;;;;;;;;;;;5014162;28;1405;-77
2022/11/14 12:37:38;;;;;;;;;;;;;;;;;;5015370;28;577;-77
2022/11/14 12:40:25;;;;;;;;;;;;;;;;;;5027206;28;1443;-75
2022/11/14 12:43:24;;;;;;;;;;;;;;;;;;5027174;28;1910;-75
2022/11/14 12:46:10;;;;;;;;;;;;;;;;;;5028161;28;1433;-76
2022/11/14 12:48:55;;;;;;;;;;;;;;;;;;5029218;28;1301;-76
2022/11/14 12:51:49;;;;;;;;;;;;;;;;;;5029537;28;1359;-75
2022/11/14 12:54:44;;;;;;;;;;;;;;;;;;5033312;28;1423;-75
2022/11/14 12:57:47;;;;;;;;;;;;;;;;;;5033248;28;673;-75
2022/11/14 13:00:32;;;;;;;;;;;;;;;;;;5033710;28;737;-75
2022/11/14 13:03:20;;;;;;;;;;;;;;;;;;5033029;28;1883;-74
2022/11/14 13:06:05;;;;;;;;;;;;;;;;;;5033975;28;1357;-76
2022/11/14 13:09:06;;;;;;;;;;;;;;;;;;5033219;28;641;-75
2022/11/14 13:24:20;;;;;;;;;;;;;;;;;;5017756;28;1985;-75
2022/11/14 13:27:20;;;;;;;;;;;;;;;;;;5031060;28;622;-75
2022/11/14 13:30:06;;;;;;;;;;;;;;;;;;5031203;28;637;-75
2022/11/14 13:32:54;;;;;;;;;;;;;;;;;;5030601;28;598;-75
2022/11/14 13:35:47;;;;;;;;;;;;;;;;;;5031143;28;1354;-75
2022/11/14 13:38:51;;;;;;;;;;;;;;;;;;5031120;28;1082;-76
2022/11/14 13:41:41;;;;;;;;;;;;;;;;;;5028410;28;881;-75
2022/11/14 13:44:40;;;;;;;;;;;;;;;;;;5030596;28;1910;-75
2022/11/14 13:47:44;;;;;;;;;;;;;;;;;;5030955;28;620;-75
2022/11/14 13:50:29;;;;;;;;;;;;;;;;;;5028998;28;649;-75
2022/11/14 13:53:15;;;;;;;;;;;;;;;;;;5026093;28;679;-75
2022/11/14 13:56:00;;;;;;;;;;;;;;;;;;5036167;28;1478;-75
2022/11/14 13:59:00;;;;;;;;;;;;;;;;;;5049113;28;703;-75
2022/11/14 14:01:51;;;;;;;;;;;;;;;;;;5034186;28;1017;-76
2022/11/14 14:04:40;;;;;;;;;;;;;;;;;;5051604;28;1914;-75
2022/11/14 14:07:26;;;;;;;;;;;;;;;;;;5051411;28;703;-75
2022/11/14 14:10:14;;;;;;;;;;;;;;;;;;5052325;28;587;-75
2022/11/14 14:13:02;;;;;;;;;;;;;;;;;;5051139;28;669;-76
2022/11/14 14:15:49;;;;;;;;;;;;;;;;;;5051847;28;1347;-76
2022/11/14 14:18:40;;;;;;;;;;;;;;;;;;5051866;28;664;-76
2022/11/14 14:21:29;;;;;;;;;;;;;;;;;;5051290;28;710;-75
2022/11/14 14:24:17;;;;;;;;;;;;;;;;;;5051633;28;1910;-75
2022/11/14 14:27:04;;;;;;;;;;;;;;;;;;5052214;28;601;-76
2022/11/14 14:29:52;;;;;;;;;;;;;;;;;;5051959;28;634;-75
2022/11/14 14:32:37;;;;;;;;;;;;;;;;;;5051325;28;634;-76
2022/11/14 14:35:24;;;;;;;;;;;;;;;;;;5037066;28;1487;-75
2022/11/14 14:38:10;;;;;;;;;;;;;;;;;;5030557;28;1075;-74
2022/11/14 14:40:55;;;;;;;;;;;;;;;;;;5030929;28;1428;-76
2022/11/14 14:43:40;;;;;;;;;;;;;;;;;;5031502;28;1973;-76
2022/11/14 14:46:26;;;;;;;;;;;;;;;;;;5035544;28;694;-76
2022/11/14 14:49:11;;;;;;;;;;;;;;;;;;5058205;22;3499;-72
2022/11/14 14:51:57;;;;;;;;;;;;;;;;;;5071143;28;1362;-74
2022/11/14 14:54:41;;;;;;;;;;;;;;;;;;5069882;28;1138;-75
2022/11/14 14:57:26;;;;;;;;;;;;;;;;;;5075055;28;1095;-74
2022/11/14 15:00:19;;;;;;;;;;;;;;;;;;5065210;28;1371;-75
2022/11/14 15:03:04;;;;;;;;;;;;;;;;;;5060646;28;1926;-74
2022/11/14 15:05:49;;;;;;;;;;;;;;;;;;5062882;28;1101;-74
2022/11/14 15:08:37;;;;;;;;;;;;;;;;;;5073564;28;1408;-73
2022/11/14 15:11:21;;;;;;;;;;;;;;;;;;5080759;28;652;-75
2022/11/14 15:14:06;;;;;;;;;;;;;;;;;;5061672;28;2557;-74
2022/11/14 15:16:52;;;;;;;;;;;;;;;;;;5047629;28;1021;-74
2022/11/14 15:19:37;;;;;;;;;;;;;;;;;;5053820;28;1389;-75
2022/11/14 15:22:24;;;;;;;;;;;;;;;;;;5051557;28;1389;-74
2022/11/14 15:25:21;;;;;;;;;;;;;;;;;;5051975;28;1906;-75
2022/11/14 15:28:12;;;;;;;;;;;;;;;;;;5050413;28;1367;-76
2022/11/14 15:30:57;;;;;;;;;;;;;;;;;;5052239;28;1456;-76
2022/11/14 15:33:42;;;;;;;;;;;;;;;;;;5052234;28;1389;-76
2022/11/14 15:36:27;;;;;;;;;;;;;;;;;;5052374;28;1368;-75
2022/11/14 15:39:21;;;;;;;;;;;;;;;;;;5030004;28;1935;-74
2022/11/14 15:42:14;;;;;;;;;;;;;;;;;;4982362;28;996;-74
2022/11/14 15:44:59;;;;;;;;;;;;;;;;;;5049331;28;1910;-74
2022/11/14 15:47:44;;;;;;;;;;;;;;;;;;5010841;28;1379;-75
2022/11/14 15:50:29;;;;;;;;;;;;;;;;;;4969945;28;1425;-74
2022/11/14 15:53:17;;;;;;;;;;;;;;;;;;4984948;28;654;-73
2022/11/14 15:56:02;;;;;;;;;;;;;;;;;;4973249;28;869;-75
2022/11/14 15:58:49;;;;;;;;;;;;;;;;;;4967046;28;1350;-74
2022/11/14 16:01:34;;;;;;;;;;;;;;;;;;4967271;28;1476;-74
2022/11/14 16:04:19;;;;;;;;;;;;;;;;;;4991592;28;1930;-72
2022/11/14 16:07:05;;;;;;;;;;;;;;;;;;4989354;28;613;-73
2022/11/14 16:09:50;;;;;;;;;;;;;;;;;;4965842;28;1414;-72
2022/11/14 16:12:35;;;;;;;;;;;;;;;;;;4992986;28;1481;-72
2022/11/14 16:15:22;;;;;;;;;;;;;;;;;;5007492;28;1254;-73
2022/11/14 16:18:07;;;;;;;;;;;;;;;;;;4993728;28;1035;-73
2022/11/14 16:20:57;;;;;;;;;;;;;;;;;;4990591;28;1432;-72
2022/11/14 16:23:42;;;;;;;;;;;;;;;;;;4987278;28;1958;-72
2022/11/14 16:26:30;;;;;;;;;;;;;;;;;;4986398;28;607;-72
2022/11/14 16:29:15;;;;;;;;;;;;;;;;;;5001327;28;1385;-73
2022/11/14 16:32:02;;;;;;;;;;;;;;;;;;4983006;28;700;-73
2022/11/14 16:34:47;;;;;;;;;;;;;;;;;;4987465;28;587;-73
2022/11/14 16:37:33;;;;;;;;;;;;;;;;;;4974360;28;616;-74
2022/11/14 16:40:20;;;;;;;;;;;;;;;;;;4982522;28;1401;-73
2022/11/14 16:43:05;;;;;;;;;;;;;;;;;;4983804;28;621;-73
2022/11/14 16:45:50;;;;;;;;;;;;;;;;;;4984295;28;644;-73
2022/11/14 16:48:37;;;;;;;;;;;;;;;;;;4984589;28;1405;-74
2022/11/14 16:51:22;;;;;;;;;;;;;;;;;;4986949;28;628;-73
2022/11/14 16:54:07;;;;;;;;;;;;;;;;;;4962712;28;920;-72
2022/11/14 16:56:52;;;;;;;;;;;;;;;;;;4977711;28;1590;-73
2022/11/14 16:59:37;;;;;;;;;;;;;;;;;;4968634;28;1322;-73
2022/11/14 17:02:23;;;;;;;;;;;;;;;;;;4967546;28;657;-73
2022/11/14 17:05:09;;;;;;;;;;;;;;;;;;4987536;28;2000;-73
2022/11/14 17:07:55;;;;;;;;;;;;;;;;;;4998587;28;1717;-73
2022/11/14 17:10:40;;;;;;;;;;;;;;;;;;4985354;28;1622;-72
2022/11/14 17:13:26;;;;;;;;;;;;;;;;;;4979497;28;1294;-73
2022/11/14 17:16:11;;;;;;;;;;;;;;;;;;5007045;28;1274;-73
2022/11/14 17:18:56;;;;;;;;;;;;;;;;;;4985247;28;1314;-73
2022/11/14 17:21:42;;;;;;;;;;;;;;;;;;4966689;28;595;-72
2022/11/14 17:24:27;;;;;;;;;;;;;;;;;;4967915;28;1926;-72
2022/11/14 17:27:12;;;;;;;;;;;;;;;;;;4964320;28;653;-73
2022/11/14 17:29:57;;;;;;;;;;;;;;;;;;4963048;28;1708;-73
2022/11/14 17:32:43;;;;;;;;;;;;;;;;;;4985042;28;1081;-73
2022/11/14 17:35:28;;;;;;;;;;;;;;;;;;5005555;28;577;-73
2022/11/14 17:38:14;;;;;;;;;;;;;;;;;;4995231;28;1170;-72
2022/11/14 17:41:00;;;;;;;;;;;;;;;;;;4990075;28;1262;-72
2022/11/14 17:43:45;;;;;;;;;;;;;;;;;;4982268;28;1922;-72
2022/11/14 17:46:30;;;;;;;;;;;;;;;;;;4979437;28;1237;-74
2022/11/14 17:49:15;;;;;;;;;;;;;;;;;;4979042;28;1334;-73
2022/11/14 17:52:01;;;;;;;;;;;;;;;;;;4985718;28;668;-73
2022/11/14 17:54:47;;;;;;;;;;;;;;;;;;4968256;28;1609;-73
2022/11/14 17:57:32;;;;;;;;;;;;;;;;;;4965832;28;597;-73
2022/11/14 18:00:18;;;;;;;;;;;;;;;;;;4966789;28;1429;-72
2022/11/14 18:03:03;;;;;;;;;;;;;;;;;;4961041;28;1388;-74
2022/11/14 18:05:48;;;;;;;;;;;;;;;;;;4977522;28;2012;-73
2022/11/14 18:08:34;;;;;;;;;;;;;;;;;;4983121;28;573;-72
2022/11/14 18:11:20;;;;;;;;;;;;;;;;;;4983927;28;620;-73
2022/11/14 18:14:05;;;;;;;;;;;;;;;;;;4991445;28;1447;-73
2022/11/14 18:16:50;;;;;;;;;;;;;;;;;;5006763;28;705;-72
2022/11/14 18:19:35;;;;;;;;;;;;;;;;;;5037040;28;1307;-74
2022/11/14 18:22:20;;;;;;;;;;;;;;;;;;5071923;28;676;-74
2022/11/14 18:25:06;;;;;;;;;;;;;;;;;;5053376;28;1910;-74
2022/11/14 18:27:52;;;;;;;;;;;;;;;;;;5054979;28;632;-73
2022/11/14 18:30:37;;;;;;;;;;;;;;;;;;5054226;28;1333;-74
2022/11/14 18:33:22;;;;;;;;;;;;;;;;;;5059589;28;1371;-75
2022/11/14 18:36:08;;;;;;;;;;;;;;;;;;5052503;28;1162;-74
2022/11/14 18:38:52;;;;;;;;;;;;;;;;;;5052044;28;1310;-74
2022/11/14 18:41:37;;;;;;;;;;;;;;;;;;5051565;28;612;-74
2022/11/14 18:44:24;;;;;;;;;;;;;;;;;;5052080;28;1903;-75
2022/11/14 18:47:09;;;;;;;;;;;;;;;;;;5058951;28;1245;-74
2022/11/14 18:49:54;;;;;;;;;;;;;;;;;;5057396;28;1518;-75
2022/11/14 18:52:38;;;;;;;;;;;;;;;;;;5053859;28;1004;-74
2022/11/14 18:55:23;;;;;;;;;;;;;;;;;;5055318;28;1373;-75
2022/11/14 18:58:08;;;;;;;;;;;;;;;;;;5057380;28;1389;-74
2022/11/14 19:00:54;;;;;;;;;;;;;;;;;;5058786;28;1478;-76
2022/11/14 19:03:39;;;;;;;;;;;;;;;;;;5037584;28;1072;-74
2022/11/14 19:06:24;;;;;;;;;;;;;;;;;;5005418;28;1648;-73
2022/11/14 19:09:10;;;;;;;;;;;;;;;;;;4986614;28;1542;-73
2022/11/14 19:15:00;;;;;;;;;;;;;;;;;;4978075;28;589;-73
2022/11/14 19:17:48;;;;;;;;;;;;;;;;;;4982016;28;632;-73
2022/11/14 19:20:33;;;;;;;;;;;;;;;;;;4989031;28;1348;-73
2022/11/14 19:23:18;;;;;;;;;;;;;;;;;;4986340;28;1361;-74
2022/11/14 19:26:03;;;;;;;;;;;;;;;;;;4990193;28;2071;-73
2022/11/14 19:28:48;;;;;;;;;;;;;;;;;;4983291;28;1384;-73
2022/11/14 19:31:33;;;;;;;;;;;;;;;;;;4982057;28;617;-75
2022/11/14 19:34:19;;;;;;;;;;;;;;;;;;4981242;28;611;-74
2022/11/14 19:37:04;;;;;;;;;;;;;;;;;;4993654;28;633;-73
2022/11/14 19:39:54;;;;;;;;;;;;;;;;;;4985519;28;1417;-73
2022/11/14 19:42:39;;;;;;;;;;;;;;;;;;4983067;28;669;-74